createdAt,value
2022-12-13T00:02:07.057Z,69.75
2022-12-13T00:04:38.904Z,59.55
2022-12-13T00:07:08.337Z,51.78
2022-12-13T00:09:36.107Z,54.83
2022-12-13T00:12:06.443Z,59.83
2022-12-13T00:14:36.161Z,55.92
2022-12-13T00:17:07.741Z,55.33
2022-12-13T00:19:35.886Z,52.72
2022-12-13T00:22:05.476Z,58.67
2022-12-13T00:24:39.096Z,54.30
2022-12-13T00:27:15.861Z,48.45
2022-12-13T00:29:46.507Z,52.40
2022-12-13T00:32:16.203Z,48.50
2022-12-13T00:34:46.114Z,53.17
2022-12-13T00:37:13.884Z,59.17
2022-12-13T00:39:41.862Z,56.45
2022-12-13T00:42:12.012Z,57.33
2022-12-13T00:44:43.281Z,55.60
2022-12-13T00:47:16.503Z,60.65
2022-12-13T00:49:48.008Z,60.28
2022-12-13T00:52:16.348Z,67.97
2022-12-13T00:54:45.204Z,62.72
2022-12-13T00:57:12.852Z,65.60
2022-12-13T00:59:43.697Z,65.30
2022-12-13T01:02:13.115Z,61.97
2022-12-13T01:04:45.256Z,63.63
2022-12-13T01:07:12.790Z,64.95
2022-12-13T01:09:42.501Z,65.10
2022-12-13T01:12:14.077Z,61.78
2022-12-13T01:14:44.022Z,62.40
2022-12-13T01:17:13.652Z,66.80
2022-12-13T01:19:44.057Z,70.35
2022-12-13T01:22:14.740Z,63.97
2022-12-13T01:24:45.437Z,66.63
2022-12-13T01:27:15.507Z,66.28
2022-12-13T01:29:47.328Z,67.07
2022-12-13T01:32:16.083Z,66.57
2022-12-13T01:34:45.151Z,69.65
2022-12-13T01:37:18.303Z,62.65
2022-12-13T01:39:46.413Z,69.97
2022-12-13T01:42:27.560Z,75.28
2022-12-13T01:45:25.966Z,64.55
2022-12-13T01:48:02.148Z,62.83
2022-12-13T01:50:39.015Z,67.00
2022-12-13T01:53:10.169Z,65.78
2022-12-13T01:55:41.588Z,69.05
2022-12-13T01:58:14.758Z,70.43
2022-12-13T02:00:45.640Z,77.10
2022-12-13T02:03:21.226Z,75.88
2022-12-13T02:06:19.311Z,77.50
2022-12-13T02:08:51.214Z,77.13
2022-12-13T02:11:20.473Z,80.15
2022-12-13T02:13:51.575Z,84.85
2022-12-13T02:16:53.273Z,85.43
2022-12-13T02:19:45.883Z,88.18
2022-12-13T02:22:49.329Z,86.47
2022-12-13T02:25:51.417Z,80.78
2022-12-13T02:28:53.770Z,80.90
2022-12-13T02:31:54.436Z,85.22
2022-12-13T02:34:52.454Z,79.97
2022-12-13T02:37:41.851Z,80.20
2022-12-13T02:40:26.900Z,90.82
2022-12-13T02:43:33.576Z,84.75
2022-12-13T02:46:08.924Z,80.90
2022-12-13T02:48:45.387Z,83.95
2022-12-13T02:51:15.491Z,80.88
2022-12-13T02:53:46.878Z,79.15
2022-12-13T02:56:15.151Z,78.25
2022-12-13T02:58:51.914Z,77.22
2022-12-13T03:01:55.017Z,75.80
2022-12-13T03:05:09.297Z,75.45
2022-12-13T03:07:53.367Z,74.63
2022-12-13T03:10:37.903Z,78.97
2022-12-13T03:13:35.322Z,73.68
2022-12-13T03:16:23.849Z,74.78
2022-12-13T03:18:56.264Z,81.30
2022-12-13T03:21:25.221Z,79.57
2022-12-13T03:23:54.092Z,78.95
2022-12-13T03:26:27.311Z,80.45
2022-12-13T03:28:55.277Z,80.32
2022-12-13T03:35:00.460Z,77.97
2022-12-13T03:37:29.304Z,77.63
2022-12-13T03:39:57.643Z,79.78
2022-12-13T03:42:27.234Z,80.57
2022-12-13T03:44:55.711Z,73.28
2022-12-13T03:47:22.995Z,74.45
2022-12-13T03:49:54.202Z,70.30
2022-12-13T03:52:21.994Z,77.15
2022-12-13T03:54:50.701Z,73.93
2022-12-13T03:57:17.783Z,75.68
2022-12-13T03:59:44.934Z,80.25
2022-12-13T04:02:12.311Z,81.10
2022-12-13T04:04:39.503Z,77.45
2022-12-13T04:07:06.689Z,75.75
2022-12-13T04:09:50.855Z,85.57
2022-12-13T04:12:36.826Z,79.22
2022-12-13T04:15:04.183Z,80.75
2022-12-13T04:17:31.430Z,75.53
2022-12-13T04:19:59.154Z,79.30
2022-12-13T04:22:26.963Z,76.03
2022-12-13T04:24:54.995Z,80.15
2022-12-13T04:27:22.945Z,71.22
2022-12-13T04:29:50.274Z,82.80
2022-12-13T04:32:26.629Z,75.68
2022-12-13T04:35:12.721Z,78.55
2022-12-13T04:37:40.015Z,66.18
2022-12-13T04:40:14.700Z,76.65
2022-12-13T04:42:53.955Z,82.95
2022-12-13T04:45:23.082Z,71.03
2022-12-13T04:47:51.381Z,69.07
2022-12-13T04:50:22.301Z,95.30
2022-12-13T04:52:49.501Z,81.30
2022-12-13T04:55:17.075Z,80.65
2022-12-13T04:57:45.153Z,84.93
2022-12-13T05:00:15.485Z,75.35
2022-12-13T05:02:43.219Z,76.15
2022-12-13T05:05:11.707Z,87.93
2022-12-13T05:07:42.330Z,87.05
2022-12-13T05:10:11.810Z,85.53
2022-12-13T05:12:41.089Z,81.93
2022-12-13T05:15:09.476Z,80.25
2022-12-13T05:17:36.847Z,79.28
2022-12-13T05:20:08.631Z,87.47
2022-12-13T05:22:37.833Z,142.75
2022-12-13T05:25:07.705Z,96.85
2022-12-13T05:27:35.034Z,87.80
2022-12-13T05:30:04.731Z,75.32
2022-12-13T05:32:44.144Z,76.65
2022-12-13T05:35:22.770Z,70.57
2022-12-13T05:37:53.689Z,82.38
2022-12-13T05:40:24.352Z,74.30
2022-12-13T05:43:01.195Z,72.95
2022-12-13T05:45:31.053Z,83.50
2022-12-13T05:47:58.411Z,83.97
2022-12-13T05:50:26.238Z,61.28
2022-12-13T05:52:54.262Z,69.57
2022-12-13T05:55:21.456Z,74.85
2022-12-13T05:57:50.561Z,69.05
2022-12-13T06:00:29.084Z,84.50
2022-12-13T06:03:00.742Z,89.10
2022-12-13T06:05:32.804Z,87.68
2022-12-13T06:08:00.580Z,87.07
2022-12-13T06:10:34.178Z,81.60
2022-12-13T06:13:21.744Z,79.10
2022-12-13T06:16:01.247Z,79.30
2022-12-13T06:18:32.204Z,85.28
2022-12-13T06:21:01.341Z,85.20
2022-12-13T06:23:32.959Z,93.57
2022-12-13T06:26:06.054Z,78.97
2022-12-13T06:28:34.242Z,95.93
2022-12-13T06:31:03.588Z,94.85
2022-12-13T06:33:36.555Z,86.90
2022-12-13T06:36:10.212Z,82.85
2022-12-13T06:38:43.286Z,93.38
2022-12-13T06:41:16.225Z,84.85
2022-12-13T06:43:45.321Z,100.57
2022-12-13T06:46:15.407Z,115.63
2022-12-13T06:48:43.206Z,105.15
2022-12-13T06:51:12.974Z,85.55
2022-12-13T06:53:52.912Z,91.03
2022-12-13T06:56:20.190Z,106.13
2022-12-13T06:58:47.407Z,110.15
2022-12-13T07:01:24.630Z,103.22
2022-12-13T07:03:55.911Z,125.05
2022-12-13T07:06:25.307Z,127.35
2022-12-13T07:08:58.932Z,125.80
2022-12-13T07:11:28.864Z,134.30
2022-12-13T07:13:56.649Z,138.30
2022-12-13T07:16:24.831Z,104.13
2022-12-13T07:19:00.982Z,110.35
2022-12-13T07:21:33.138Z,121.28
2022-12-13T07:24:03.695Z,129.05
2022-12-13T07:26:32.570Z,112.88
2022-12-13T07:29:06.691Z,103.03
2022-12-13T07:31:39.799Z,118.70
2022-12-13T07:34:12.881Z,114.25
2022-12-13T07:36:48.233Z,119.68
2022-12-13T07:39:17.975Z,117.72
2022-12-13T07:41:47.656Z,100.88
2022-12-13T07:44:15.435Z,94.72
2022-12-13T07:46:49.264Z,96.68
2022-12-13T07:49:21.657Z,88.07
2022-12-13T07:51:49.929Z,84.25
2022-12-13T07:54:18.358Z,84.85
2022-12-13T07:56:50.450Z,102.15
2022-12-13T07:59:28.548Z,100.15
2022-12-13T08:01:57.594Z,93.53
2022-12-13T08:04:29.639Z,134.02
2022-12-13T08:07:09.351Z,122.50
2022-12-13T08:09:38.417Z,104.00
2022-12-13T08:12:06.227Z,87.30
2022-12-13T08:14:35.944Z,87.78
2022-12-13T08:17:03.217Z,83.75
2022-12-13T08:19:31.215Z,85.30
2022-12-13T08:22:01.698Z,90.53
2022-12-13T08:24:30.986Z,83.28
2022-12-13T08:27:02.058Z,94.60
2022-12-13T08:29:33.987Z,94.82
2022-12-13T08:32:11.971Z,88.30
2022-12-13T08:34:43.919Z,85.15
2022-12-13T08:37:11.666Z,79.78
2022-12-13T08:39:45.301Z,89.65
2022-12-13T08:42:20.914Z,77.20
2022-12-13T08:44:54.865Z,85.22
2022-12-13T08:47:26.324Z,81.20
2022-12-13T08:50:02.251Z,90.85
2022-12-13T08:52:40.810Z,84.07
2022-12-13T08:55:14.113Z,76.85
2022-12-13T08:57:43.800Z,70.65
2022-12-13T09:00:17.884Z,73.38
2022-12-13T09:02:45.380Z,69.40
2022-12-13T09:05:13.201Z,76.68
2022-12-13T09:08:23.992Z,72.80
2022-12-13T09:10:59.982Z,75.13
2022-12-13T09:13:32.560Z,94.55
2022-12-13T09:16:14.432Z,74.63
2022-12-13T09:18:54.813Z,73.70
2022-12-13T09:21:31.678Z,71.13
2022-12-13T09:24:01.471Z,89.45
2022-12-13T09:26:38.202Z,68.72
2022-12-13T09:29:10.963Z,57.97
2022-12-13T09:31:41.227Z,68.78
2022-12-13T09:34:12.857Z,52.85
2022-12-13T09:36:41.104Z,52.33
2022-12-13T09:39:09.270Z,55.30
2022-12-13T09:41:41.439Z,46.28
2022-12-13T09:44:32.095Z,42.78
2022-12-13T09:47:13.219Z,39.67
2022-12-13T09:49:52.703Z,55.70
2022-12-13T09:52:23.630Z,39.00
2022-12-13T09:54:53.976Z,62.70
2022-12-13T09:57:33.218Z,46.78
2022-12-13T10:00:08.438Z,41.60
2022-12-13T10:02:57.046Z,43.53
2022-12-13T10:05:40.496Z,39.65
2022-12-13T10:08:19.688Z,37.42
2022-12-13T10:10:51.014Z,33.42
2022-12-13T10:13:29.806Z,31.80
2022-12-13T10:16:06.718Z,30.30
2022-12-13T10:18:39.507Z,23.00
2022-12-13T10:21:33.614Z,25.30
2022-12-13T10:24:36.394Z,28.67
2022-12-13T10:27:22.001Z,32.55
2022-12-13T10:30:28.774Z,48.13
2022-12-13T10:33:06.942Z,54.95
2022-12-13T10:35:43.223Z,44.05
2022-12-13T10:38:17.264Z,25.38
2022-12-13T10:40:48.893Z,35.63
2022-12-13T10:43:28.575Z,43.47
2022-12-13T10:46:03.920Z,30.02
2022-12-13T10:48:49.198Z,29.27
2022-12-13T10:51:23.121Z,25.33
2022-12-13T10:53:59.043Z,31.02
2022-12-13T10:56:46.543Z,22.65
2022-12-13T10:59:39.940Z,24.40
2022-12-13T11:02:28.748Z,28.13
2022-12-13T11:04:58.307Z,41.95
2022-12-13T11:07:30.143Z,24.27
2022-12-13T11:10:05.017Z,19.45
2022-12-13T11:12:35.540Z,18.65
2022-12-13T11:15:07.805Z,22.23
2022-12-13T11:17:45.688Z,31.35
2022-12-13T11:20:38.733Z,46.70
2022-12-13T11:23:23.485Z,32.28
2022-12-13T11:25:56.641Z,25.80
2022-12-13T11:28:30.721Z,23.35
2022-12-13T11:31:36.475Z,32.03
2022-12-13T11:34:12.710Z,26.77
2022-12-13T11:37:16.043Z,24.95
2022-12-13T11:40:01.611Z,50.03
2022-12-13T11:42:38.581Z,23.60
2022-12-13T11:45:08.738Z,30.38
2022-12-13T11:47:58.918Z,39.80
2022-12-13T11:50:32.818Z,28.42
2022-12-13T11:53:30.087Z,29.55
2022-12-13T11:56:08.505Z,31.95
2022-12-13T11:59:04.698Z,26.50
2022-12-13T12:01:54.768Z,29.75
2022-12-13T12:04:46.204Z,27.42
2022-12-13T12:07:31.875Z,24.38
2022-12-13T12:10:30.582Z,26.02
2022-12-13T12:13:09.882Z,29.42
2022-12-13T12:16:15.871Z,27.90
2022-12-13T12:18:44.416Z,31.95
2022-12-13T12:21:49.605Z,29.95
2022-12-13T12:24:30.062Z,27.27
2022-12-13T12:27:26.186Z,24.38
2022-12-13T12:30:07.739Z,21.77
2022-12-13T12:32:44.291Z,27.52
2022-12-13T12:35:21.880Z,28.58
2022-12-13T12:38:07.570Z,25.95
2022-12-13T12:41:14.089Z,21.30
2022-12-13T12:43:43.717Z,26.42
2022-12-13T12:46:46.821Z,19.85
2022-12-13T12:49:27.892Z,24.00
2022-12-13T12:52:13.143Z,22.92
2022-12-13T12:58:01.610Z,20.15
2022-12-13T13:00:39.327Z,35.03
2022-12-13T13:03:24.626Z,23.38
2022-12-13T13:06:01.970Z,25.65
2022-12-13T13:08:55.076Z,19.90
2022-12-13T13:11:27.607Z,19.00
2022-12-13T13:14:03.499Z,24.80
2022-12-13T13:16:39.665Z,24.42
2022-12-13T13:19:35.696Z,25.55
2022-12-13T13:22:21.612Z,25.92
2022-12-13T13:25:31.077Z,32.47
2022-12-13T13:28:16.580Z,36.05
2022-12-13T13:31:10.163Z,48.63
2022-12-13T13:33:51.457Z,38.97
2022-12-13T13:36:43.375Z,29.13
2022-12-13T13:39:53.036Z,29.60
2022-12-13T13:42:25.196Z,29.23
2022-12-13T13:44:52.505Z,34.78
2022-12-13T13:47:20.507Z,29.98
2022-12-13T13:50:27.254Z,26.33
2022-12-13T13:53:13.799Z,29.65
2022-12-13T13:56:07.011Z,32.55
2022-12-13T13:59:05.222Z,35.35
2022-12-13T14:02:11.469Z,33.17
2022-12-13T14:05:07.836Z,36.30
2022-12-13T14:07:43.709Z,36.03
2022-12-13T14:10:20.589Z,39.70
2022-12-13T14:13:08.480Z,38.92
2022-12-13T14:15:57.737Z,59.25
2022-12-13T14:18:37.455Z,50.70
2022-12-13T14:21:20.009Z,45.45
2022-12-13T14:24:01.433Z,56.63
2022-12-13T14:26:41.455Z,36.45
2022-12-13T14:29:29.282Z,35.83
2022-12-13T14:31:56.625Z,43.90
2022-12-13T14:34:29.751Z,53.28
2022-12-13T14:37:01.495Z,58.67
2022-12-13T14:39:33.685Z,46.45
2022-12-13T14:42:02.986Z,44.15
2022-12-13T14:44:34.550Z,44.40
2022-12-13T14:47:06.008Z,42.20
2022-12-13T14:49:36.057Z,72.70
2022-12-13T14:52:06.671Z,44.80
2022-12-13T14:54:47.330Z,50.22
2022-12-13T14:57:21.845Z,42.55
2022-12-13T14:59:54.594Z,39.17
2022-12-13T15:02:30.083Z,39.50
2022-12-13T15:05:10.534Z,54.85
2022-12-13T15:07:38.822Z,75.95
2022-12-13T15:10:21.047Z,64.95
2022-12-13T15:12:51.391Z,121.30
2022-12-13T15:15:38.520Z,108.13
2022-12-13T15:18:27.873Z,63.28
2022-12-13T15:21:22.331Z,54.83
2022-12-13T15:23:55.280Z,59.63
2022-12-13T15:29:10.060Z,53.17
2022-12-13T15:31:40.592Z,55.90
2022-12-13T15:34:31.135Z,54.13
2022-12-13T15:37:01.470Z,50.63
2022-12-13T15:39:31.280Z,50.45
2022-12-13T15:42:02.199Z,50.03
2022-12-13T15:44:44.966Z,50.30
2022-12-13T15:47:28.346Z,47.97
2022-12-13T15:50:01.537Z,50.33
2022-12-13T15:52:40.005Z,48.45
2022-12-13T15:55:07.306Z,51.42
2022-12-13T15:57:56.544Z,51.80
2022-12-13T16:00:32.457Z,52.72
2022-12-13T16:03:18.819Z,61.70
2022-12-13T16:05:52.456Z,59.55
2022-12-13T16:08:33.170Z,53.40
2022-12-13T16:11:06.841Z,47.38
2022-12-13T16:13:40.101Z,55.30
2022-12-13T16:16:30.136Z,54.78
2022-12-13T16:19:02.006Z,51.58
2022-12-13T16:21:30.382Z,52.28
2022-12-13T16:23:57.495Z,55.20
2022-12-13T16:26:27.769Z,76.30
2022-12-13T16:28:58.626Z,69.90
2022-12-13T16:31:35.388Z,65.85
2022-12-13T16:34:05.296Z,63.15
2022-12-13T16:36:32.614Z,84.50
2022-12-13T16:38:59.791Z,62.33
2022-12-13T16:41:27.932Z,62.00
2022-12-13T16:44:04.179Z,61.67
2022-12-13T16:47:17.331Z,65.82
2022-12-13T16:49:32.271Z,71.18
2022-12-13T16:52:00.004Z,54.53
2022-12-13T16:54:28.776Z,74.45
2022-12-13T16:56:56.299Z,54.53
2022-12-13T16:59:28.208Z,65.85
2022-12-13T17:01:55.851Z,59.80
2022-12-13T17:04:24.464Z,55.10
2022-12-13T17:06:55.100Z,68.10
2022-12-13T17:09:25.424Z,55.90
2022-12-13T17:11:52.915Z,54.90
2022-12-13T17:14:20.065Z,67.93
2022-12-13T17:16:49.079Z,59.53
2022-12-13T17:19:17.839Z,63.25
2022-12-13T17:21:48.118Z,59.47
2022-12-13T17:24:15.923Z,89.63
2022-12-13T17:26:54.282Z,69.93
2022-12-13T17:29:24.863Z,63.42
2022-12-13T17:31:53.158Z,68.03
2022-12-13T17:34:22.805Z,67.28
2022-12-13T17:36:50.112Z,85.80
2022-12-13T17:39:18.558Z,69.25
2022-12-13T17:41:54.938Z,56.13
2022-12-13T17:44:24.618Z,59.83
2022-12-13T17:46:55.242Z,59.72
2022-12-13T17:49:23.885Z,60.15
2022-12-13T17:51:54.217Z,54.92
2022-12-13T17:54:26.410Z,59.15
2022-12-13T17:56:54.585Z,60.33
2022-12-13T17:59:22.060Z,58.15
2022-12-13T18:01:50.151Z,55.95
2022-12-13T18:04:17.747Z,71.75
2022-12-13T18:06:48.242Z,57.38
2022-12-13T18:09:16.174Z,59.38
2022-12-13T18:11:44.336Z,77.90
2022-12-13T18:14:11.942Z,61.72
2022-12-13T18:16:40.273Z,57.65
2022-12-13T18:19:12.136Z,49.60
2022-12-13T18:21:39.988Z,55.67
2022-12-13T18:24:10.116Z,64.95
2022-12-13T18:26:37.250Z,62.15
2022-12-13T18:29:05.025Z,68.65
2022-12-13T18:31:32.515Z,75.60
2022-12-13T18:34:01.348Z,58.15
2022-12-13T18:36:30.540Z,54.63
2022-12-13T18:38:57.683Z,51.30
2022-12-13T18:41:30.300Z,60.33
2022-12-13T18:44:00.208Z,61.70
2022-12-13T18:46:30.209Z,71.00
2022-12-13T18:48:58.502Z,50.25
2022-12-13T18:51:30.476Z,52.17
2022-12-13T18:54:01.791Z,49.00
2022-12-13T18:56:29.931Z,48.63
2022-12-13T18:58:58.139Z,46.42
2022-12-13T19:01:31.288Z,53.38
2022-12-13T19:03:58.593Z,46.70
2022-12-13T19:06:28.647Z,49.15
2022-12-13T19:08:58.095Z,43.47
2022-12-13T19:11:28.636Z,48.20
2022-12-13T19:14:01.011Z,50.15
2022-12-13T19:16:28.885Z,43.90
2022-12-13T19:18:57.381Z,49.55
2022-12-13T19:21:24.489Z,37.72
2022-12-13T19:23:57.348Z,43.20
2022-12-13T19:26:31.544Z,38.33
2022-12-13T19:28:59.419Z,36.22
2022-12-13T19:31:31.474Z,34.65
2022-12-13T19:34:01.642Z,35.03
2022-12-13T19:36:32.424Z,35.70
2022-12-13T19:38:59.908Z,37.67
2022-12-13T19:41:27.900Z,38.25
2022-12-13T19:43:55.143Z,43.72
2022-12-13T19:46:26.710Z,42.28
2022-12-13T19:48:53.978Z,43.10
2022-12-13T19:51:21.788Z,48.50
2022-12-13T19:53:49.360Z,85.05
2022-12-13T19:56:19.427Z,59.58
2022-12-13T19:58:51.832Z,64.03
2022-12-13T20:01:20.218Z,44.83
2022-12-13T20:03:47.641Z,44.95
2022-12-13T20:06:18.770Z,45.17
2022-12-13T20:08:47.072Z,41.00
2022-12-13T20:11:19.576Z,40.30
2022-12-13T20:13:48.322Z,36.83
2022-12-13T20:16:22.691Z,38.33
2022-12-13T20:18:58.811Z,38.75
2022-12-13T20:21:31.176Z,38.95
2022-12-13T20:24:02.387Z,32.53
2022-12-13T20:26:33.595Z,40.53
2022-12-13T20:29:00.834Z,43.30
2022-12-13T20:31:30.589Z,58.78
2022-12-13T20:34:00.824Z,49.13
2022-12-13T20:36:31.855Z,43.47
2022-12-13T20:39:00.573Z,45.28
2022-12-13T20:41:31.415Z,40.05
2022-12-13T20:44:00.449Z,56.58
2022-12-13T20:46:32.015Z,37.10
2022-12-13T20:49:01.803Z,40.08
2022-12-13T20:51:31.699Z,40.40
2022-12-13T20:53:59.428Z,55.28
2022-12-13T20:56:31.857Z,44.88
2022-12-13T20:58:59.541Z,43.85
2022-12-13T21:01:32.524Z,40.50
2022-12-13T21:04:01.838Z,48.47
2022-12-13T21:06:32.675Z,53.13
2022-12-13T21:09:02.881Z,43.90
2022-12-13T21:11:36.407Z,42.95
2022-12-13T21:14:13.622Z,48.90
2022-12-13T21:17:01.273Z,43.00
2022-12-13T21:19:37.533Z,46.92
2022-12-13T21:22:06.435Z,42.08
2022-12-13T21:24:37.699Z,54.28
2022-12-13T21:27:06.739Z,51.80
2022-12-13T21:29:33.881Z,49.70
2022-12-13T21:32:01.080Z,43.70
2022-12-13T21:34:33.445Z,39.60
2022-12-13T21:37:03.361Z,39.03
2022-12-13T21:39:36.138Z,39.33
2022-12-13T21:42:05.085Z,38.92
2022-12-13T21:44:32.898Z,34.80
2022-12-13T21:47:15.359Z,35.42
2022-12-13T21:49:48.854Z,35.80
2022-12-13T21:52:17.677Z,37.40
2022-12-13T21:54:47.348Z,34.25
2022-12-13T21:57:34.332Z,33.90
2022-12-13T22:00:01.490Z,33.58
2022-12-13T22:02:30.960Z,29.98
2022-12-13T22:04:59.808Z,33.83
2022-12-13T22:07:33.524Z,34.50
2022-12-13T22:10:02.194Z,35.83
2022-12-13T22:12:39.481Z,33.83
2022-12-13T22:15:10.018Z,31.15
2022-12-13T22:17:39.190Z,35.03
2022-12-13T22:20:10.247Z,30.55
2022-12-13T22:22:44.808Z,33.35
2022-12-13T22:25:13.975Z,33.70
2022-12-13T22:27:41.105Z,36.30
2022-12-13T22:30:08.986Z,43.90
2022-12-13T22:32:36.276Z,35.95
2022-12-13T22:35:06.958Z,33.88
2022-12-13T22:37:34.047Z,39.50
2022-12-13T22:40:06.581Z,34.70
2022-12-13T22:42:33.767Z,35.38
2022-12-13T22:45:00.990Z,34.33
2022-12-13T22:47:33.675Z,36.75
2022-12-13T22:50:00.875Z,37.20
2022-12-13T22:52:34.036Z,34.13
2022-12-13T22:55:02.415Z,40.85
2022-12-13T22:57:33.730Z,38.67
2022-12-13T23:00:00.868Z,38.90
2022-12-13T23:02:28.369Z,42.25
2022-12-13T23:04:57.098Z,39.45
2022-12-13T23:07:24.267Z,44.17
2022-12-13T23:09:53.828Z,44.03
2022-12-13T23:12:40.437Z,44.38
2022-12-13T23:15:08.405Z,45.05
2022-12-13T23:17:35.933Z,66.82
2022-12-13T23:20:06.659Z,94.70
2022-12-13T23:22:35.855Z,94.15
2022-12-13T23:25:03.142Z,92.82
2022-12-13T23:27:31.210Z,88.82
2022-12-13T23:29:58.537Z,62.75
2022-12-13T23:32:28.340Z,51.38
2022-12-13T23:34:57.326Z,43.15
2022-12-13T23:37:25.117Z,40.47
2022-12-13T23:39:54.802Z,37.05
2022-12-13T23:42:23.336Z,36.53
2022-12-13T23:44:51.009Z,37.38
2022-12-13T23:47:20.210Z,32.22
2022-12-13T23:49:48.376Z,33.08
2022-12-13T23:52:15.613Z,35.33
2022-12-13T23:54:45.749Z,33.85
2022-12-13T23:57:12.914Z,32.55
2022-12-13T23:59:44.528Z,32.00
